createdAt,value
2019-03-24T00:00:15.636Z,17.20
2019-03-24T00:02:41.944Z,17.19
2019-03-24T00:05:08.248Z,17.16
2019-03-24T00:07:34.558Z,17.13
2019-03-24T00:10:00.863Z,17.08
2019-03-24T00:12:27.172Z,17.08
2019-03-24T00:14:53.476Z,17.06
2019-03-24T00:17:19.784Z,17.04
2019-03-24T00:19:46.088Z,17.03
2019-03-24T00:22:12.416Z,17.01
2019-03-24T00:24:38.725Z,16.99
2019-03-24T00:27:05.026Z,16.97
2019-03-24T00:29:31.335Z,16.94
2019-03-24T00:31:57.647Z,16.92
2019-03-24T00:34:23.961Z,16.92
2019-03-24T00:36:50.269Z,16.89
2019-03-24T00:39:16.576Z,16.87
2019-03-24T00:41:42.881Z,16.85
2019-03-24T00:44:09.200Z,16.83
2019-03-24T00:46:35.503Z,16.78
2019-03-24T00:49:01.808Z,16.78
2019-03-24T00:51:28.114Z,16.78
2019-03-24T00:53:54.420Z,16.76
2019-03-24T00:56:20.724Z,16.73
2019-03-24T00:58:47.028Z,16.73
2019-03-24T01:01:13.336Z,16.71
2019-03-24T01:03:39.643Z,16.69
2019-03-24T01:06:05.975Z,16.68
2019-03-24T01:08:32.280Z,16.66
2019-03-24T01:10:58.589Z,16.64
2019-03-24T01:13:24.896Z,16.61
2019-03-24T01:15:51.206Z,16.59
2019-03-24T01:18:17.514Z,16.58
2019-03-24T01:20:43.819Z,16.53
2019-03-24T01:23:10.126Z,16.55
2019-03-24T01:25:36.427Z,16.53
2019-03-24T01:28:02.760Z,16.50
2019-03-24T01:30:29.058Z,16.48
2019-03-24T01:32:55.395Z,16.46
2019-03-24T01:35:21.707Z,16.39
2019-03-24T01:37:48.031Z,16.41
2019-03-24T01:40:14.341Z,16.38
2019-03-24T01:42:40.643Z,16.39
2019-03-24T01:45:06.955Z,16.36
2019-03-24T01:47:33.262Z,16.35
2019-03-24T01:49:59.575Z,16.33
2019-03-24T01:52:25.879Z,16.32
2019-03-24T01:54:52.190Z,16.30
2019-03-24T01:57:18.496Z,16.28
2019-03-24T01:59:44.800Z,16.27
2019-03-24T02:02:11.107Z,16.24
2019-03-24T02:04:37.411Z,16.18
2019-03-24T02:07:03.721Z,16.18
2019-03-24T02:09:30.024Z,16.17
2019-03-24T02:11:56.364Z,16.14
2019-03-24T02:14:22.673Z,16.14
2019-03-24T02:16:48.977Z,16.13
2019-03-24T02:19:15.282Z,16.12
2019-03-24T02:21:41.586Z,16.09
2019-03-24T02:24:07.896Z,16.08
2019-03-24T02:26:34.212Z,16.06
2019-03-24T02:29:00.542Z,16.04
2019-03-24T02:31:26.850Z,16.01
2019-03-24T02:33:53.157Z,16.01
2019-03-24T02:36:19.469Z,15.99
2019-03-24T02:38:45.771Z,15.95
2019-03-24T02:41:12.087Z,15.96
2019-03-24T02:43:38.392Z,15.93
2019-03-24T02:46:04.719Z,15.90
2019-03-24T02:48:31.023Z,15.90
2019-03-24T02:50:57.325Z,15.88
2019-03-24T02:53:23.631Z,15.85
2019-03-24T02:55:49.933Z,15.82
2019-03-24T02:58:16.236Z,15.82
2019-03-24T03:00:42.544Z,15.84
2019-03-24T03:03:08.848Z,15.83
2019-03-24T03:05:35.153Z,15.80
2019-03-24T03:08:01.485Z,15.80
2019-03-24T03:10:27.790Z,15.79
2019-03-24T03:12:54.125Z,15.77
2019-03-24T03:15:20.431Z,15.75
2019-03-24T03:17:46.735Z,15.74
2019-03-24T03:20:13.049Z,15.73
2019-03-24T03:22:39.366Z,15.72
2019-03-24T03:25:05.668Z,15.70
2019-03-24T03:27:31.972Z,15.68
2019-03-24T03:29:58.285Z,15.66
2019-03-24T03:32:24.599Z,15.64
2019-03-24T03:34:50.933Z,15.63
2019-03-24T03:37:17.235Z,15.61
2019-03-24T03:39:43.557Z,15.61
2019-03-24T03:42:09.850Z,15.58
2019-03-24T03:44:36.155Z,15.57
2019-03-24T03:47:02.482Z,15.54
2019-03-24T03:49:28.779Z,15.52
2019-03-24T03:51:55.088Z,15.51
2019-03-24T03:54:21.389Z,15.46
2019-03-24T03:56:47.712Z,15.49
2019-03-24T03:59:14.021Z,15.46
2019-03-24T04:01:40.328Z,15.42
2019-03-24T04:04:06.644Z,15.40
2019-03-24T04:06:32.945Z,15.39
2019-03-24T04:08:59.278Z,15.38
2019-03-24T04:11:25.576Z,15.36
2019-03-24T04:13:51.882Z,15.35
2019-03-24T04:16:18.190Z,15.34
2019-03-24T04:18:44.501Z,15.33
2019-03-24T04:21:10.811Z,15.33
2019-03-24T04:23:37.114Z,15.31
2019-03-24T04:26:03.420Z,15.29
2019-03-24T04:28:29.781Z,15.27
2019-03-24T04:30:56.101Z,15.25
2019-03-24T04:33:22.403Z,15.25
2019-03-24T04:35:48.723Z,15.24
2019-03-24T04:38:15.028Z,15.24
2019-03-24T04:40:41.336Z,15.25
2019-03-24T04:43:07.652Z,15.24
2019-03-24T04:45:33.946Z,15.25
2019-03-24T04:48:00.251Z,15.26
2019-03-24T04:50:26.554Z,15.27
2019-03-24T04:52:52.862Z,15.28
2019-03-24T04:55:19.171Z,15.33
2019-03-24T04:57:45.496Z,15.35
2019-03-24T05:00:11.801Z,15.39
2019-03-24T05:02:38.104Z,15.42
2019-03-24T05:05:04.418Z,15.47
2019-03-24T05:07:30.722Z,15.51
2019-03-24T05:09:57.034Z,15.55
2019-03-24T05:12:23.347Z,15.57
2019-03-24T05:14:49.659Z,15.65
2019-03-24T05:17:15.973Z,15.73
2019-03-24T05:19:42.315Z,15.78
2019-03-24T05:22:08.621Z,15.84
2019-03-24T05:24:34.932Z,15.92
2019-03-24T05:27:01.246Z,16.01
2019-03-24T05:29:27.558Z,16.11
2019-03-24T05:31:53.888Z,16.22
2019-03-24T05:34:20.194Z,16.30
2019-03-24T05:36:46.511Z,16.40
2019-03-24T05:39:12.816Z,16.50
2019-03-24T05:41:39.122Z,16.61
2019-03-24T05:44:05.432Z,16.71
2019-03-24T05:46:31.733Z,16.82
2019-03-24T05:48:58.138Z,16.94
2019-03-24T05:51:24.450Z,17.02
2019-03-24T05:53:50.799Z,17.15
2019-03-24T05:56:17.111Z,17.27
2019-03-24T05:58:43.470Z,17.38
2019-03-24T06:01:09.777Z,17.48
2019-03-24T06:03:36.116Z,17.62
2019-03-24T06:06:02.430Z,17.75
2019-03-24T06:08:28.736Z,17.85
2019-03-24T06:10:55.051Z,18.01
2019-03-24T06:13:21.376Z,18.13
2019-03-24T06:15:47.690Z,18.28
2019-03-24T06:18:14.002Z,18.41
2019-03-24T06:20:40.367Z,18.55
2019-03-24T06:23:06.686Z,18.69
2019-03-24T06:25:34.908Z,18.84
2019-03-24T06:27:59.412Z,18.78
2019-03-24T06:30:25.748Z,18.22
2019-03-24T06:32:52.064Z,17.73
2019-03-24T06:35:18.372Z,17.49
2019-03-24T06:37:44.680Z,17.33
2019-03-24T06:40:11.013Z,17.21
2019-03-24T06:42:37.350Z,17.30
2019-03-24T06:45:03.657Z,17.29
2019-03-24T06:47:29.966Z,17.28
2019-03-24T06:49:56.300Z,17.30
2019-03-24T06:52:22.619Z,17.40
2019-03-24T06:54:48.932Z,17.62
2019-03-24T06:57:16.891Z,17.73
2019-03-24T06:59:41.557Z,17.80
2019-03-24T07:02:07.856Z,17.80
2019-03-24T07:04:34.195Z,17.95
2019-03-24T07:07:00.505Z,18.16
2019-03-24T07:09:26.814Z,18.21
2019-03-24T07:11:53.122Z,18.36
2019-03-24T07:14:19.437Z,18.56
2019-03-24T07:16:45.803Z,18.65
2019-03-24T07:19:12.117Z,18.63
2019-03-24T07:21:38.423Z,18.76
2019-03-24T07:24:04.734Z,19.05
2019-03-24T07:26:31.040Z,19.14
2019-03-24T07:28:57.351Z,19.22
2019-03-24T07:31:23.660Z,19.56
2019-03-24T07:33:49.964Z,19.79
2019-03-24T07:36:16.274Z,19.92
2019-03-24T07:38:42.584Z,19.68
2019-03-24T07:41:08.909Z,19.77
2019-03-24T07:43:35.222Z,19.96
2019-03-24T07:46:01.532Z,20.17
2019-03-24T07:48:27.867Z,20.33
2019-03-24T07:50:54.178Z,20.47
2019-03-24T07:53:20.509Z,20.64
2019-03-24T07:55:46.802Z,20.81
2019-03-24T07:58:13.107Z,20.88
2019-03-24T08:00:39.416Z,20.92
2019-03-24T08:03:05.735Z,21.12
2019-03-24T08:05:32.061Z,21.31
2019-03-24T08:07:58.370Z,21.30
2019-03-24T08:10:24.726Z,21.49
2019-03-24T08:12:51.098Z,21.69
2019-03-24T08:15:17.373Z,21.81
2019-03-24T08:17:43.685Z,21.92
2019-03-24T08:20:12.219Z,21.91
2019-03-24T08:22:36.322Z,22.12
2019-03-24T08:25:02.629Z,22.25
2019-03-24T08:27:28.960Z,22.38
2019-03-24T08:29:55.273Z,22.39
2019-03-24T08:32:21.598Z,22.40
2019-03-24T08:34:48.495Z,22.64
2019-03-24T08:37:14.225Z,22.76
2019-03-24T08:39:40.541Z,22.81
2019-03-24T08:42:06.883Z,22.90
2019-03-24T08:44:33.209Z,23.03
2019-03-24T08:46:59.522Z,23.20
2019-03-24T08:49:25.829Z,23.32
2019-03-24T08:51:52.143Z,23.45
2019-03-24T08:54:18.500Z,23.52
2019-03-24T08:56:44.803Z,23.65
2019-03-24T08:59:11.181Z,23.64
2019-03-24T09:01:37.489Z,23.64
2019-03-24T09:04:03.804Z,23.48
2019-03-24T09:06:30.114Z,23.30
2019-03-24T09:08:56.414Z,23.32
2019-03-24T09:11:30.806Z,23.64
2019-03-24T09:13:49.030Z,23.89
2019-03-24T09:16:15.345Z,23.87
2019-03-24T09:18:52.197Z,24.01
2019-03-24T09:21:07.984Z,24.10
2019-03-24T09:23:34.300Z,23.99
2019-03-24T09:26:00.616Z,24.08
2019-03-24T09:28:26.929Z,24.19
2019-03-24T09:30:53.235Z,24.22
2019-03-24T09:33:19.549Z,24.27
2019-03-24T09:35:45.855Z,24.35
2019-03-24T09:38:12.175Z,24.44
2019-03-24T09:40:38.492Z,24.59
2019-03-24T09:43:04.836Z,24.70
2019-03-24T09:45:31.150Z,24.83
2019-03-24T09:47:57.454Z,25.05
2019-03-24T09:50:23.801Z,25.20
2019-03-24T09:52:50.141Z,25.36
2019-03-24T09:55:16.455Z,25.47
2019-03-24T09:57:42.767Z,25.44
2019-03-24T10:00:09.085Z,25.47
2019-03-24T10:02:35.394Z,25.40
2019-03-24T10:05:01.739Z,25.43
2019-03-24T10:07:28.052Z,25.39
2019-03-24T10:09:54.369Z,25.47
2019-03-24T10:12:20.679Z,25.55
2019-03-24T10:14:46.989Z,25.57
2019-03-24T10:17:13.307Z,25.54
2019-03-24T10:19:39.746Z,25.60
2019-03-24T10:22:06.059Z,25.61
2019-03-24T10:24:32.368Z,25.65
2019-03-24T10:26:58.708Z,25.73
2019-03-24T10:29:25.075Z,25.71
2019-03-24T10:31:51.355Z,25.70
2019-03-24T10:34:17.674Z,25.32
2019-03-24T10:36:43.982Z,24.16
2019-03-24T10:39:10.299Z,23.34
2019-03-24T10:41:36.609Z,23.18
2019-03-24T10:44:02.953Z,23.39
2019-03-24T10:46:29.261Z,23.58
2019-03-24T10:48:55.570Z,24.02
2019-03-24T10:51:21.883Z,24.29
2019-03-24T10:53:48.192Z,24.33
2019-03-24T10:56:14.496Z,24.59
2019-03-24T10:58:40.805Z,24.71
2019-03-24T11:01:07.122Z,24.82
2019-03-24T11:03:33.423Z,25.01
2019-03-24T11:05:59.738Z,24.85
2019-03-24T11:08:26.050Z,24.83
2019-03-24T11:10:52.359Z,24.73
2019-03-24T11:13:18.687Z,24.69
2019-03-24T11:15:44.999Z,24.95
2019-03-24T11:18:11.315Z,24.81
2019-03-24T11:20:37.637Z,24.50
2019-03-24T11:23:03.947Z,24.79
2019-03-24T11:25:30.262Z,25.07
2019-03-24T11:27:56.576Z,24.88
2019-03-24T11:30:22.905Z,24.44
2019-03-24T11:32:49.208Z,24.44
2019-03-24T11:35:15.516Z,24.75
2019-03-24T11:37:41.830Z,24.97
2019-03-24T11:40:08.142Z,25.03
2019-03-24T11:42:34.457Z,25.10
2019-03-24T11:45:00.859Z,25.17
2019-03-24T11:47:27.131Z,25.16
2019-03-24T11:49:53.422Z,25.04
2019-03-24T11:52:19.736Z,25.08
2019-03-24T11:54:46.065Z,25.13
2019-03-24T11:57:12.381Z,25.05
2019-03-24T11:59:38.692Z,25.03
2019-03-24T12:02:05.027Z,25.03
2019-03-24T12:04:31.339Z,25.05
2019-03-24T12:06:57.956Z,24.97
2019-03-24T12:09:24.267Z,25.01
2019-03-24T12:11:50.575Z,24.88
2019-03-24T12:14:16.922Z,24.85
2019-03-24T12:16:43.239Z,24.85
2019-03-24T12:19:09.587Z,24.83
2019-03-24T12:21:35.861Z,24.44
2019-03-24T12:24:02.177Z,24.07
2019-03-24T12:26:28.484Z,24.00
2019-03-24T12:28:54.793Z,23.99
2019-03-24T12:31:21.104Z,24.15
2019-03-24T12:33:47.411Z,24.32
2019-03-24T12:36:13.744Z,24.43
2019-03-24T12:38:40.251Z,24.48
2019-03-24T12:41:06.569Z,24.46
2019-03-24T12:43:32.875Z,24.44
2019-03-24T12:45:59.180Z,24.51
2019-03-24T12:48:25.516Z,24.36
2019-03-24T12:50:51.797Z,24.29
2019-03-24T12:53:18.105Z,24.34
2019-03-24T12:55:44.417Z,24.22
2019-03-24T12:58:10.759Z,24.00
2019-03-24T13:00:37.068Z,23.79
2019-03-24T13:03:03.388Z,23.52
2019-03-24T13:05:29.706Z,23.39
2019-03-24T13:07:56.008Z,23.12
2019-03-24T13:10:22.314Z,22.79
2019-03-24T13:12:48.644Z,22.47
2019-03-24T13:15:14.952Z,22.20
2019-03-24T13:17:41.251Z,22.17
2019-03-24T13:20:07.566Z,22.26
2019-03-24T13:22:33.873Z,22.30
2019-03-24T13:25:00.349Z,22.25
2019-03-24T13:27:26.521Z,22.09
2019-03-24T13:29:52.827Z,21.94
2019-03-24T13:32:19.139Z,21.82
2019-03-24T13:34:45.452Z,21.71
2019-03-24T13:37:11.768Z,21.64
2019-03-24T13:39:38.124Z,21.62
2019-03-24T13:42:04.393Z,21.49
2019-03-24T13:44:30.701Z,21.28
2019-03-24T13:46:57.040Z,21.36
2019-03-24T13:49:23.344Z,21.27
2019-03-24T13:51:49.655Z,21.23
2019-03-24T13:54:15.965Z,21.33
2019-03-24T13:56:42.269Z,21.19
2019-03-24T13:59:08.576Z,21.17
2019-03-24T14:01:34.911Z,21.08
2019-03-24T14:04:01.217Z,21.02
2019-03-24T14:06:27.519Z,20.96
2019-03-24T14:08:53.860Z,20.93
2019-03-24T14:11:20.168Z,20.86
2019-03-24T14:13:46.476Z,20.79
2019-03-24T14:16:12.787Z,20.68
2019-03-24T14:18:39.099Z,20.69
2019-03-24T14:21:05.405Z,20.68
2019-03-24T14:23:31.711Z,20.68
2019-03-24T14:25:58.041Z,20.69
2019-03-24T14:28:24.349Z,20.69
2019-03-24T14:30:50.690Z,20.65
2019-03-24T14:33:16.991Z,20.68
2019-03-24T14:35:43.298Z,20.55
2019-03-24T14:38:09.605Z,20.48
2019-03-24T14:40:35.912Z,20.43
2019-03-24T14:43:02.226Z,20.33
2019-03-24T14:45:28.533Z,20.23
2019-03-24T14:47:54.856Z,20.21
2019-03-24T14:50:21.171Z,20.22
2019-03-24T14:52:47.507Z,20.28
2019-03-24T14:55:13.815Z,20.40
2019-03-24T14:57:40.119Z,20.25
2019-03-24T15:00:06.429Z,20.10
2019-03-24T15:02:32.760Z,20.01
2019-03-24T15:04:59.071Z,20.02
2019-03-24T15:07:25.370Z,20.06
2019-03-24T15:09:51.685Z,20.10
2019-03-24T15:12:18.003Z,20.15
2019-03-24T15:14:44.359Z,20.18
2019-03-24T15:17:10.680Z,20.20
2019-03-24T15:19:37.008Z,20.19
2019-03-24T15:22:03.325Z,20.17
2019-03-24T15:24:29.682Z,20.14
2019-03-24T15:26:55.954Z,20.15
2019-03-24T15:29:22.282Z,20.13
2019-03-24T15:31:48.625Z,20.14
2019-03-24T15:34:14.934Z,20.11
2019-03-24T15:36:41.240Z,20.06
2019-03-24T15:39:07.556Z,20.03
2019-03-24T15:41:33.861Z,20.03
2019-03-24T15:44:00.178Z,20.08
2019-03-24T15:46:26.480Z,20.09
2019-03-24T15:48:52.810Z,20.13
2019-03-24T15:51:19.123Z,20.09
2019-03-24T15:53:45.436Z,20.09
2019-03-24T15:56:11.761Z,20.08
2019-03-24T15:58:38.065Z,20.05
2019-03-24T16:01:04.376Z,20.01
2019-03-24T16:03:30.683Z,20.03
2019-03-24T16:05:57.029Z,20.07
2019-03-24T16:08:23.340Z,20.04
2019-03-24T16:10:49.682Z,20.03
2019-03-24T16:13:15.991Z,19.97
2019-03-24T16:15:42.299Z,19.93
2019-03-24T16:18:08.626Z,19.79
2019-03-24T16:20:34.960Z,19.67
2019-03-24T16:23:01.280Z,19.63
2019-03-24T16:25:27.584Z,19.55
2019-03-24T16:27:53.894Z,19.44
2019-03-24T16:30:20.213Z,19.29
2019-03-24T16:32:46.556Z,19.26
2019-03-24T16:35:12.865Z,19.25
2019-03-24T16:37:39.186Z,19.20
2019-03-24T16:40:05.501Z,19.17
2019-03-24T16:42:31.803Z,19.13
2019-03-24T16:44:58.108Z,19.10
2019-03-24T16:47:24.421Z,19.06
2019-03-24T16:49:50.739Z,19.04
2019-03-24T16:52:17.082Z,18.95
2019-03-24T16:54:43.399Z,18.90
2019-03-24T16:57:09.701Z,18.88
2019-03-24T16:59:36.003Z,18.90
2019-03-24T17:02:02.312Z,18.85
2019-03-24T17:04:28.622Z,18.82
2019-03-24T17:06:54.939Z,18.80
2019-03-24T17:09:21.244Z,18.70
2019-03-24T17:11:47.584Z,18.63
2019-03-24T17:14:13.892Z,18.54
2019-03-24T17:16:40.204Z,18.53
2019-03-24T17:19:06.515Z,18.49
2019-03-24T17:21:32.850Z,18.45
2019-03-24T17:23:59.151Z,18.41
2019-03-24T17:26:25.459Z,18.25
2019-03-24T17:28:51.774Z,18.12
2019-03-24T17:31:18.081Z,18.07
2019-03-24T17:33:44.403Z,18.08
2019-03-24T17:36:10.733Z,17.95
2019-03-24T17:38:37.049Z,17.86
2019-03-24T17:41:03.362Z,17.73
2019-03-24T17:43:29.665Z,17.68
2019-03-24T17:45:55.976Z,17.58
2019-03-24T17:48:22.284Z,17.52
2019-03-24T17:50:48.630Z,17.46
2019-03-24T17:53:15.270Z,17.46
2019-03-24T17:55:41.574Z,17.51
2019-03-24T17:58:07.884Z,17.55
2019-03-24T18:00:34.201Z,17.53
2019-03-24T18:03:00.529Z,17.55
2019-03-24T18:05:26.837Z,17.53
2019-03-24T18:07:53.155Z,17.43
2019-03-24T18:10:19.459Z,17.45
2019-03-24T18:12:45.805Z,17.46
2019-03-24T18:15:12.113Z,17.44
2019-03-24T18:17:38.428Z,17.41
2019-03-24T18:20:04.755Z,17.41
2019-03-24T18:22:31.073Z,17.35
2019-03-24T18:24:57.383Z,17.36
2019-03-24T18:27:23.689Z,17.30
2019-03-24T18:29:50.010Z,17.29
2019-03-24T18:32:16.344Z,17.30
2019-03-24T18:34:42.656Z,17.27
2019-03-24T18:37:09.020Z,17.24
2019-03-24T18:39:35.331Z,17.15
2019-03-24T18:42:01.688Z,17.20
2019-03-24T18:44:27.990Z,17.19
2019-03-24T18:46:54.373Z,17.21
2019-03-24T18:49:20.676Z,17.17
2019-03-24T18:51:46.980Z,17.13
2019-03-24T18:54:13.307Z,17.10
2019-03-24T18:56:39.617Z,17.07
2019-03-24T18:59:05.922Z,17.08
2019-03-24T19:01:32.235Z,17.14
2019-03-24T19:03:58.565Z,17.12
2019-03-24T19:06:24.872Z,17.09
2019-03-24T19:08:51.212Z,17.03
2019-03-24T19:11:17.527Z,16.99
2019-03-24T19:13:43.907Z,16.94
2019-03-24T19:16:10.282Z,16.91
2019-03-24T19:18:36.578Z,16.97
2019-03-24T19:21:02.888Z,16.88
2019-03-24T19:23:29.235Z,16.89
2019-03-24T19:25:55.555Z,16.79
2019-03-24T19:28:21.874Z,16.71
2019-03-24T19:30:48.254Z,16.61
2019-03-24T19:33:14.586Z,16.56
2019-03-24T19:35:40.894Z,16.56
2019-03-24T19:38:07.212Z,16.54
2019-03-24T19:40:33.542Z,16.48
2019-03-24T19:42:59.828Z,16.42
2019-03-24T19:45:26.151Z,16.34
2019-03-24T19:47:52.462Z,16.31
2019-03-24T19:50:18.772Z,16.30
2019-03-24T19:52:45.159Z,16.29
2019-03-24T19:55:11.417Z,16.15
2019-03-24T19:57:37.761Z,16.05
2019-03-24T20:00:04.069Z,15.98
2019-03-24T20:02:30.427Z,16.06
2019-03-24T20:04:56.728Z,16.07
2019-03-24T20:07:23.035Z,16.01
2019-03-24T20:09:49.347Z,15.94
2019-03-24T20:12:15.971Z,15.81
2019-03-24T20:14:41.966Z,15.70
2019-03-24T20:17:08.311Z,15.57
2019-03-24T20:19:34.651Z,15.41
2019-03-24T20:22:00.954Z,15.37
2019-03-24T20:24:27.381Z,15.41
2019-03-24T20:26:53.768Z,15.42
2019-03-24T20:29:20.056Z,15.41
2019-03-24T20:31:46.372Z,15.25
2019-03-24T20:34:12.679Z,15.43
2019-03-24T20:36:39.006Z,15.46
2019-03-24T20:39:06.665Z,15.33
2019-03-24T20:41:31.614Z,15.19
2019-03-24T20:43:57.930Z,15.08
2019-03-24T20:46:24.243Z,15.10
2019-03-24T20:48:50.557Z,15.13
2019-03-24T20:51:16.902Z,15.13
2019-03-24T20:53:43.212Z,15.08
2019-03-24T20:56:09.517Z,15.02
2019-03-24T20:58:35.857Z,14.98
2019-03-24T21:01:02.165Z,14.89
2019-03-24T21:03:28.471Z,14.90
2019-03-24T21:05:54.780Z,14.96
2019-03-24T21:08:21.097Z,14.88
2019-03-24T21:10:47.405Z,14.81
2019-03-24T21:13:13.714Z,14.83
2019-03-24T21:15:40.025Z,14.78
2019-03-24T21:18:06.331Z,14.69
2019-03-24T21:20:32.646Z,14.68
2019-03-24T21:22:58.957Z,14.66
2019-03-24T21:25:25.266Z,14.64
2019-03-24T21:27:51.586Z,14.62
2019-03-24T21:30:17.916Z,14.61
2019-03-24T21:32:44.231Z,14.55
2019-03-24T21:35:10.616Z,14.47
2019-03-24T21:37:36.926Z,14.40
2019-03-24T21:40:03.227Z,14.48
2019-03-24T21:42:29.541Z,14.50
2019-03-24T21:44:55.851Z,14.45
2019-03-24T21:47:22.155Z,14.31
2019-03-24T21:49:48.460Z,14.19
2019-03-24T21:52:14.763Z,14.17
2019-03-24T21:54:41.069Z,14.11
2019-03-24T21:57:07.495Z,14.01
2019-03-24T21:59:33.805Z,13.93
2019-03-24T22:02:00.148Z,13.95
2019-03-24T22:04:26.425Z,13.96
2019-03-24T22:06:52.726Z,13.98
2019-03-24T22:09:19.035Z,13.96
2019-03-24T22:11:45.352Z,13.87
2019-03-24T22:14:11.662Z,13.79
2019-03-24T22:16:37.967Z,13.69
2019-03-24T22:19:04.310Z,13.63
2019-03-24T22:21:30.638Z,13.59
2019-03-24T22:23:56.946Z,13.68
2019-03-24T22:26:23.279Z,13.65
2019-03-24T22:28:49.635Z,13.56
2019-03-24T22:31:15.907Z,13.57
2019-03-24T22:33:42.213Z,13.56
2019-03-24T22:36:08.544Z,13.49
2019-03-24T22:38:34.840Z,13.41
2019-03-24T22:41:03.170Z,13.43
2019-03-24T22:43:29.473Z,13.52
2019-03-24T22:45:55.781Z,13.42
2019-03-24T22:48:22.089Z,13.32
2019-03-24T22:50:48.396Z,13.37
2019-03-24T22:53:14.704Z,13.44
2019-03-24T22:55:41.014Z,13.44
2019-03-24T22:58:07.327Z,13.32
2019-03-24T23:00:33.671Z,13.21
2019-03-24T23:02:59.954Z,13.18
2019-03-24T23:05:26.257Z,13.12
2019-03-24T23:07:52.588Z,13.07
2019-03-24T23:10:18.897Z,13.03
2019-03-24T23:12:45.236Z,12.97
2019-03-24T23:15:11.571Z,12.95
2019-03-24T23:17:37.870Z,12.89
2019-03-24T23:20:04.286Z,12.91
2019-03-24T23:22:30.564Z,12.93
2019-03-24T23:24:56.896Z,12.85
2019-03-24T23:27:23.187Z,12.83
2019-03-24T23:29:49.534Z,12.72
2019-03-24T23:32:15.839Z,12.64
2019-03-24T23:34:42.141Z,12.59
2019-03-24T23:37:08.446Z,12.49
2019-03-24T23:39:34.754Z,12.44
2019-03-24T23:42:01.059Z,12.46
2019-03-24T23:44:27.362Z,12.46
2019-03-24T23:46:53.666Z,12.41
2019-03-24T23:49:19.972Z,12.41
2019-03-24T23:51:46.327Z,12.41
2019-03-24T23:54:12.633Z,12.41
2019-03-24T23:56:38.934Z,12.40
2019-03-24T23:59:05.244Z,12.38
